Time;durP1;ratioP1;P1;durP2;ratioP2;P2;SDS_P1;SDS_P2;PMS_P1;PMS_P2;Temp;Humidity;BMP_temperature;BMP_pressure;BME280_temperature;BME280_humidity;BME280_pressure;Samples;Min_cycle;Max_cycle;Signal;HPM_P1;HPM_P2
2023/06/08 00:00:50;;;;;;;5.13;3.72;;;16.70;61.80;;;;;;5008088;28;20049;-62
2023/06/08 00:03:17;;;;;;;4.50;3.70;;;16.70;61.90;;;;;;5008781;28;20030;-63
2023/06/08 00:05:47;;;;;;;3.80;3.50;;;16.70;61.90;;;;;;5008776;28;20038;-63
2023/06/08 00:08:12;;;;;;;4.90;3.70;;;16.70;62.00;;;;;;5003130;28;20080;-61
2023/06/08 00:10:44;;;;;;;6.35;3.60;;;16.70;61.80;;;;;;4999586;28;20026;-62
2023/06/08 00:13:10;;;;;;;6.20;3.53;;;16.80;62.00;;;;;;5003099;28;20049;-63
2023/06/08 00:15:36;;;;;;;5.25;3.50;;;16.80;61.70;;;;;;5002601;28;20042;-62
2023/06/08 00:18:02;;;;;;;7.55;4.00;;;16.80;61.70;;;;;;5002915;28;20470;-62
2023/06/08 00:20:28;;;;;;;4.28;3.58;;;16.80;61.70;;;;;;5002349;28;20569;-63
2023/06/08 00:22:56;;;;;;;3.92;3.50;;;16.80;61.60;;;;;;5003395;28;20052;-61
2023/06/08 00:25:21;;;;;;;5.32;3.42;;;16.90;61.80;;;;;;5004304;28;20058;-63
2023/06/08 00:27:47;;;;;;;5.18;3.63;;;16.80;61.70;;;;;;5004573;28;20174;-62
2023/06/08 00:30:15;;;;;;;7.25;4.25;;;16.80;61.90;;;;;;5004205;28;20517;-63
2023/06/08 00:32:41;;;;;;;4.90;4.30;;;16.80;62.00;;;;;;5003503;28;20042;-62
2023/06/08 00:35:07;;;;;;;4.72;4.32;;;16.80;62.00;;;;;;5005280;28;20037;-62
2023/06/08 00:37:35;;;;;;;4.82;4.28;;;16.80;62.10;;;;;;5000973;28;20110;-62
2023/06/08 00:40:01;;;;;;;5.35;4.35;;;16.70;62.00;;;;;;5003066;28;20044;-61
2023/06/08 00:42:27;;;;;;;6.40;4.13;;;16.70;62.40;;;;;;5004257;28;20062;-63
2023/06/08 00:44:52;;;;;;;5.95;4.13;;;16.60;62.50;;;;;;5004209;28;20176;-62
2023/06/08 00:47:18;;;;;;;4.07;3.63;;;16.50;62.60;;;;;;5001976;28;20045;-62
2023/06/08 00:49:45;;;;;;;5.63;4.20;;;16.50;62.70;;;;;;5001791;28;20038;-63
2023/06/08 00:52:10;;;;;;;5.32;4.35;;;16.40;63.10;;;;;;4999198;28;20087;-62
2023/06/08 00:54:39;;;;;;;5.03;4.20;;;16.40;63.30;;;;;;4998591;28;20042;-62
2023/06/08 00:57:06;;;;;;;7.00;5.28;;;16.30;63.20;;;;;;5004562;28;20034;-62
2023/06/08 00:59:32;;;;;;;8.90;6.43;;;16.30;63.30;;;;;;5001723;28;20075;-62
2023/06/08 01:01:58;;;;;;;10.45;8.57;;;16.20;63.30;;;;;;5002642;28;20045;-62
2023/06/08 01:04:25;;;;;;;10.60;9.05;;;16.20;63.40;;;;;;5001884;28;20072;-63
2023/06/08 01:07:00;;;;;;;7.15;5.15;;;16.20;63.40;;;;;;4986801;28;20056;-61
2023/06/08 01:10:03;;;;;;;9.50;4.68;;;16.20;63.60;;;;;;5001850;28;20694;-63
2023/06/08 01:13:03;;;;;;;4.32;3.85;;;16.10;64.10;;;;;;4990873;28;20033;-62
2023/06/08 01:15:37;;;;;;;4.50;4.07;;;16.10;64.50;;;;;;4998610;28;20064;-62
2023/06/08 01:18:07;;;;;;;4.20;3.80;;;16.00;64.00;;;;;;5002600;28;20057;-62
2023/06/08 01:20:49;;;;;;;5.03;3.92;;;15.90;63.80;;;;;;5000445;28;20034;-63
2023/06/08 01:23:59;;;;;;;3.92;3.45;;;15.80;64.30;;;;;;5002955;28;20038;-62
2023/06/08 01:26:28;;;;;;;3.55;3.25;;;15.80;65.20;;;;;;5002905;28;20058;-63
2023/06/08 01:28:55;;;;;;;5.25;3.92;;;15.80;64.20;;;;;;5003000;28;20522;-63
2023/06/08 01:31:21;;;;;;;5.70;3.63;;;15.80;64.10;;;;;;5004942;28;20038;-62
2023/06/08 01:33:46;;;;;;;4.00;3.60;;;15.80;64.30;;;;;;5001802;28;20071;-63
2023/06/08 01:36:36;;;;;;;3.75;3.40;;;15.80;64.30;;;;;;4998861;28;20030;-62
2023/06/08 01:39:22;;;;;;;5.60;3.47;;;15.90;64.80;;;;;;5000160;28;20086;-63
2023/06/08 01:41:54;;;;;;;4.13;3.28;;;15.90;64.50;;;;;;5003481;28;20057;-63
2023/06/08 01:44:21;;;;;;;4.25;3.67;;;15.90;64.00;;;;;;5003672;28;20057;-63
2023/06/08 01:46:59;;;;;;;5.43;4.18;;;15.90;63.90;;;;;;5003633;28;20503;-62
2023/06/08 01:49:27;;;;;;;5.50;4.20;;;15.90;64.60;;;;;;5000380;28;20037;-62
2023/06/08 01:51:53;;;;;;;4.43;4.05;;;15.80;64.80;;;;;;5004862;28;20042;-62
2023/06/08 01:54:21;;;;;;;4.30;3.90;;;15.80;63.80;;;;;;5004729;28;20044;-62
2023/06/08 01:56:47;;;;;;;4.70;3.85;;;15.80;64.10;;;;;;5003412;28;20040;-62
2023/06/08 01:59:12;;;;;;;6.30;4.50;;;15.70;63.90;;;;;;5002279;28;20034;-62
2023/06/08 02:01:38;;;;;;;4.88;4.40;;;15.80;64.00;;;;;;5000872;28;20081;-62
2023/06/08 02:04:03;;;;;;;5.20;4.32;;;15.80;64.20;;;;;;5000593;28;20042;-62
2023/06/08 02:06:29;;;;;;;4.63;4.22;;;15.80;64.20;;;;;;5001475;28;20099;-63
2023/06/08 02:08:55;;;;;;;5.60;4.50;;;15.70;64.30;;;;;;5004473;28;20152;-62
2023/06/08 02:11:22;;;;;;;5.25;3.88;;;15.70;65.20;;;;;;5001093;28;20092;-62
2023/06/08 02:13:48;;;;;;;4.55;4.05;;;15.60;64.50;;;;;;5002102;28;20042;-62
2023/06/08 02:16:14;;;;;;;4.50;4.10;;;15.60;64.60;;;;;;5002297;28;20121;-62
2023/06/08 02:18:41;;;;;;;5.53;4.07;;;15.60;64.50;;;;;;4999303;28;20046;-62
2023/06/08 02:21:10;;;;;;;4.93;4.43;;;15.60;64.60;;;;;;5002822;28;20042;-62
2023/06/08 02:23:37;;;;;;;5.10;4.60;;;15.60;65.00;;;;;;5003794;28;20045;-63
2023/06/08 02:26:04;;;;;;;5.45;4.82;;;15.60;64.80;;;;;;5001115;28;20046;-62
2023/06/08 02:28:29;;;;;;;6.15;4.32;;;15.60;65.00;;;;;;5001440;28;20049;-63
2023/06/08 02:30:55;;;;;;;6.45;4.40;;;15.50;64.80;;;;;;5004310;28;20235;-63
2023/06/08 02:33:21;;;;;;;5.05;4.47;;;15.50;65.00;;;;;;5003341;28;20057;-62
2023/06/08 02:35:48;;;;;;;6.75;4.50;;;15.50;65.20;;;;;;5001720;28;20485;-63
2023/06/08 02:38:14;;;;;;;8.02;4.72;;;15.50;65.30;;;;;;5002680;28;20643;-62
2023/06/08 02:40:39;;;;;;;8.23;5.13;;;15.40;65.30;;;;;;5002027;28;20041;-63
2023/06/08 02:43:05;;;;;;;7.80;5.25;;;15.40;65.50;;;;;;5005165;28;20060;-61
2023/06/08 02:45:30;;;;;;;6.88;4.45;;;15.30;65.60;;;;;;5003045;28;20042;-62
2023/06/08 02:47:57;;;;;;;5.25;4.15;;;15.10;65.70;;;;;;5005829;28;20056;-61
2023/06/08 02:50:23;;;;;;;4.32;3.97;;;15.10;67.00;;;;;;5000194;28;20041;-63
2023/06/08 02:52:49;;;;;;;5.57;4.05;;;15.10;66.20;;;;;;5003460;28;20045;-62
2023/06/08 02:55:15;;;;;;;4.38;3.97;;;15.10;66.30;;;;;;5002558;28;20517;-63
2023/06/08 02:57:40;;;;;;;5.13;4.63;;;15.00;66.10;;;;;;5002086;28;21862;-62
2023/06/08 03:00:13;;;;;;;4.93;4.53;;;15.00;66.20;;;;;;5002229;28;20042;-62
2023/06/08 03:02:38;;;;;;;5.43;4.70;;;14.90;66.40;;;;;;5000398;28;20095;-63
2023/06/08 03:05:04;;;;;;;4.88;4.47;;;14.80;66.40;;;;;;5001802;28;20042;-62
2023/06/08 03:07:33;;;;;;;4.85;4.43;;;14.80;66.70;;;;;;5000858;28;20130;-62
2023/06/08 03:09:59;;;;;;;6.40;4.63;;;14.70;66.80;;;;;;4985324;28;20346;-62
2023/06/08 03:12:25;;;;;;;4.75;4.35;;;14.60;66.90;;;;;;5001435;28;20106;-62
2023/06/08 03:14:50;;;;;;;4.93;4.43;;;14.70;67.20;;;;;;5000542;28;20124;-62
2023/06/08 03:17:20;;;;;;;5.15;4.57;;;14.60;67.30;;;;;;5000095;28;20034;-62
2023/06/08 03:19:45;;;;;;;5.68;4.38;;;14.70;67.50;;;;;;5002089;28;20038;-63
2023/06/08 03:22:11;;;;;;;5.38;4.60;;;14.70;67.40;;;;;;5004018;28;20048;-62
2023/06/08 03:24:37;;;;;;;4.80;4.13;;;14.60;67.40;;;;;;5005069;28;20038;-62
2023/06/08 03:27:06;;;;;;;4.97;4.38;;;14.60;67.40;;;;;;5002862;28;20359;-63
2023/06/08 03:29:31;;;;;;;4.93;4.50;;;14.60;67.50;;;;;;5003643;28;20054;-62
2023/06/08 03:31:58;;;;;;;4.93;4.30;;;14.60;67.50;;;;;;5002937;28;20356;-61
2023/06/08 03:34:27;;;;;;;4.80;4.40;;;14.60;67.40;;;;;;5001426;28;20033;-62
2023/06/08 03:36:54;;;;;;;5.43;4.53;;;14.60;67.40;;;;;;5001949;28;20042;-63
2023/06/08 03:39:19;;;;;;;5.25;4.75;;;14.60;67.40;;;;;;5003603;28;20394;-63
2023/06/08 03:41:45;;;;;;;5.72;4.80;;;14.70;67.50;;;;;;4991425;28;20041;-62
2023/06/08 03:44:11;;;;;;;8.02;5.10;;;14.60;67.40;;;;;;5002233;28;20549;-63
2023/06/08 03:46:37;;;;;;;6.70;5.22;;;14.60;67.40;;;;;;5000107;28;20038;-63
2023/06/08 03:49:02;;;;;;;5.82;4.75;;;14.50;67.50;;;;;;4999832;28;20041;-63
2023/06/08 03:51:28;;;;;;;5.70;5.10;;;14.50;67.90;;;;;;5003431;28;20125;-62
2023/06/08 03:53:54;;;;;;;5.25;4.75;;;14.40;68.00;;;;;;5004667;28;20172;-62
2023/06/08 03:56:20;;;;;;;5.68;5.10;;;14.30;68.20;;;;;;5000571;28;20068;-62
2023/06/08 03:58:46;;;;;;;4.90;4.50;;;14.30;68.60;;;;;;5000619;28;20034;-63
2023/06/08 04:01:12;;;;;;;5.55;4.63;;;14.20;68.80;;;;;;5002298;28;20458;-61
2023/06/08 04:03:38;;;;;;;4.75;4.25;;;14.10;68.90;;;;;;5002445;28;20080;-62
2023/06/08 04:06:08;;;;;;;6.30;4.57;;;14.20;69.10;;;;;;4999142;28;20037;-62
2023/06/08 04:08:40;;;;;;;9.65;4.55;;;14.10;69.30;;;;;;4999342;28;20048;-62
2023/06/08 04:11:08;;;;;;;5.40;4.80;;;14.10;69.40;;;;;;5002071;28;20041;-63
2023/06/08 04:13:38;;;;;;;5.32;4.82;;;14.20;69.50;;;;;;5000046;28;20571;-63
2023/06/08 04:16:08;;;;;;;4.57;4.18;;;14.20;69.40;;;;;;5001938;28;20149;-61
2023/06/08 04:18:34;;;;;;;5.03;4.53;;;14.20;69.40;;;;;;4998520;28;20041;-62
2023/06/08 04:21:00;;;;;;;5.38;4.88;;;14.20;69.50;;;;;;4982153;28;20061;-61
2023/06/08 04:23:27;;;;;;;6.53;4.65;;;14.20;69.70;;;;;;5001863;28;20536;-62
2023/06/08 04:25:53;;;;;;;5.20;4.70;;;14.30;69.80;;;;;;5000205;28;20557;-61
2023/06/08 04:28:21;;;;;;;6.45;4.32;;;14.30;69.70;;;;;;5000695;28;20034;-62
2023/06/08 04:30:48;;;;;;;6.57;4.47;;;14.40;70.60;;;;;;5000529;28;20053;-62
2023/06/08 04:33:13;;;;;;;5.68;4.63;;;14.40;69.60;;;;;;4999167;28;20037;-63
2023/06/08 04:35:40;;;;;;;5.00;4.60;;;14.60;69.80;;;;;;5001074;28;20038;-62
2023/06/08 04:38:12;;;;;;;6.13;5.18;;;14.50;69.60;;;;;;5001277;28;20129;-62
2023/06/08 04:40:38;;;;;;;5.90;5.10;;;14.50;69.90;;;;;;5005159;28;20038;-63
2023/06/08 04:43:03;;;;;;;5.75;5.25;;;14.60;69.70;;;;;;5003748;28;20030;-62
2023/06/08 04:45:29;;;;;;;5.60;4.95;;;14.60;69.80;;;;;;5006933;28;20089;-62
2023/06/08 04:47:57;;;;;;;5.70;5.20;;;14.60;69.90;;;;;;5008618;28;20398;-62
2023/06/08 04:50:22;;;;;;;5.60;4.63;;;14.60;70.20;;;;;;5000447;28;20034;-63
2023/06/08 04:52:50;;;;;;;5.60;5.10;;;14.60;70.20;;;;;;5003064;28;20127;-62
2023/06/08 04:55:16;;;;;;;5.90;5.40;;;14.70;70.40;;;;;;5003644;28;20517;-62
2023/06/08 04:57:42;;;;;;;6.20;5.40;;;14.70;70.40;;;;;;5005233;28;20092;-62
2023/06/08 05:00:12;;;;;;;5.97;5.47;;;14.80;70.50;;;;;;5003076;28;20043;-62
2023/06/08 05:02:38;;;;;;;6.80;5.15;;;14.90;70.60;;;;;;5001473;28;20251;-63
2023/06/08 05:05:05;;;;;;;5.95;5.10;;;15.00;70.40;;;;;;5004069;28;20413;-62
2023/06/08 05:07:30;;;;;;;6.78;5.32;;;15.10;70.40;;;;;;5002911;28;20486;-63
2023/06/08 05:10:00;;;;;;;5.93;5.32;;;15.10;70.30;;;;;;5004152;28;20084;-62
2023/06/08 05:12:29;;;;;;;6.25;5.18;;;15.20;70.40;;;;;;5003024;28;20069;-63
2023/06/08 05:14:55;;;;;;;5.88;5.15;;;15.40;70.20;;;;;;5004455;28;20046;-62
2023/06/08 05:17:22;;;;;;;6.05;5.30;;;15.40;70.00;;;;;;5002995;28;20185;-60
2023/06/08 05:19:50;;;;;;;5.75;5.13;;;15.60;70.20;;;;;;4984887;28;20038;-62
2023/06/08 05:22:16;;;;;;;6.32;5.80;;;15.60;70.00;;;;;;5004720;28;20045;-61
2023/06/08 05:24:41;;;;;;;6.00;5.35;;;15.70;69.90;;;;;;5004543;28;20434;-62
2023/06/08 05:27:07;;;;;;;5.30;4.90;;;15.80;69.70;;;;;;5005808;28;20030;-62
2023/06/08 05:29:33;;;;;;;5.80;5.20;;;15.90;69.80;;;;;;5003656;28;20045;-63
2023/06/08 05:32:00;;;;;;;6.22;5.60;;;15.90;69.90;;;;;;5002513;28;20042;-62
2023/06/08 05:34:26;;;;;;;7.07;5.70;;;16.00;70.00;;;;;;4999887;28;20049;-62
2023/06/08 05:36:54;;;;;;;6.05;5.45;;;16.10;70.10;;;;;;5001943;28;20034;-62
2023/06/08 05:39:19;;;;;;;7.07;5.63;;;16.20;70.20;;;;;;5004552;28;20413;-63
2023/06/08 05:41:45;;;;;;;6.25;5.65;;;16.20;70.00;;;;;;4999451;28;20034;-62
2023/06/08 05:44:10;;;;;;;6.05;5.53;;;16.30;70.00;;;;;;5005700;28;20042;-62
2023/06/08 05:46:36;;;;;;;5.80;5.30;;;16.40;69.90;;;;;;5001497;28;20047;-62
2023/06/08 05:49:02;;;;;;;6.72;6.13;;;16.40;69.80;;;;;;5003451;28;20042;-63
2023/06/08 05:51:27;;;;;;;7.40;6.35;;;16.50;69.60;;;;;;5002171;28;20107;-63
2023/06/08 05:53:53;;;;;;;6.65;5.85;;;16.50;69.50;;;;;;5002748;28;20053;-62
2023/06/08 05:56:18;;;;;;;6.82;6.05;;;16.60;69.50;;;;;;5003067;28;20045;-62
2023/06/08 05:58:44;;;;;;;6.60;6.00;;;16.70;69.30;;;;;;5002239;28;20119;-62
2023/06/08 06:01:10;;;;;;;8.07;6.13;;;16.80;69.30;;;;;;5001861;28;20038;-61
2023/06/08 06:03:35;;;;;;;7.07;6.40;;;16.90;69.20;;;;;;5002200;28;20490;-63
2023/06/08 06:06:01;;;;;;;6.80;6.20;;;17.00;69.20;;;;;;5003641;28;20046;-62
2023/06/08 06:08:26;;;;;;;8.18;6.78;;;17.10;69.20;;;;;;5001026;28;20081;-62
2023/06/08 06:10:52;;;;;;;7.03;6.28;;;17.20;69.20;;;;;;5003123;28;20049;-63
2023/06/08 06:13:18;;;;;;;8.38;6.63;;;17.30;69.10;;;;;;5001672;28;20029;-63
2023/06/08 06:15:43;;;;;;;7.50;6.70;;;17.40;69.00;;;;;;5002143;28;20039;-63
2023/06/08 06:18:09;;;;;;;7.20;6.60;;;17.50;68.80;;;;;;5002790;28;20034;-63
2023/06/08 06:20:34;;;;;;;7.88;6.95;;;17.60;68.50;;;;;;4997775;28;20133;-62
2023/06/08 06:23:00;;;;;;;8.02;7.22;;;17.70;68.10;;;;;;5001106;28;20046;-62
2023/06/08 06:25:25;;;;;;;10.82;6.70;;;17.80;68.00;;;;;;5000045;28;20038;-62
2023/06/08 06:27:51;;;;;;;7.35;6.65;;;17.80;67.90;;;;;;5001499;28;20033;-63
2023/06/08 06:30:17;;;;;;;7.55;6.82;;;17.90;67.60;;;;;;5003022;28;20030;-62
2023/06/08 06:32:42;;;;;;;9.30;7.15;;;18.10;67.40;;;;;;5000444;28;20406;-62
2023/06/08 06:35:10;;;;;;;8.10;7.40;;;18.10;67.40;;;;;;4981082;28;20030;-62
2023/06/08 06:37:36;;;;;;;7.60;6.90;;;18.20;67.30;;;;;;4999350;28;20040;-60
2023/06/08 06:40:06;;;;;;;10.23;7.72;;;18.30;67.10;;;;;;4988038;28;20038;-62
2023/06/08 06:42:32;;;;;;;8.35;7.50;;;18.40;66.90;;;;;;4993393;28;20038;-62
2023/06/08 06:44:58;;;;;;;8.60;7.70;;;18.50;66.60;;;;;;5000589;28;20095;-62
2023/06/08 06:47:24;;;;;;;9.02;7.50;;;18.50;66.60;;;;;;4997478;28;20045;-62
2023/06/08 06:49:50;;;;;;;8.75;7.65;;;18.60;66.40;;;;;;5004730;28;20120;-62
2023/06/08 06:52:16;;;;;;;7.35;6.68;;;18.70;66.40;;;;;;4998838;28;20570;-62
2023/06/08 06:54:42;;;;;;;8.07;7.22;;;18.80;66.50;;;;;;4991796;28;20559;-64
2023/06/08 06:57:07;;;;;;;8.05;7.25;;;18.80;66.30;;;;;;5000446;28;20038;-62
2023/06/08 06:59:34;;;;;;;8.07;7.38;;;19.00;66.30;;;;;;4995794;28;20046;-62
2023/06/08 07:01:59;;;;;;;8.13;7.35;;;19.10;66.00;;;;;;5001964;28;20034;-62
2023/06/08 07:04:25;;;;;;;10.35;7.50;;;19.10;65.90;;;;;;5001137;28;20057;-62
2023/06/08 07:06:52;;;;;;;8.50;7.65;;;19.20;65.70;;;;;;5002626;28;20029;-62
2023/06/08 07:09:21;;;;;;;9.27;8.20;;;19.30;65.70;;;;;;5000524;28;20393;-62
2023/06/08 07:11:47;;;;;;;8.05;7.25;;;19.40;65.90;;;;;;5003989;28;20038;-62
2023/06/08 07:14:13;;;;;;;8.77;7.88;;;19.50;66.20;;;;;;5002213;28;20042;-62
2023/06/08 07:16:40;;;;;;;8.65;7.70;;;19.60;65.90;;;;;;5000216;28;20041;-62
2023/06/08 07:19:05;;;;;;;9.95;7.43;;;19.60;65.00;;;;;;5003601;28;20040;-63
2023/06/08 07:21:31;;;;;;;10.73;7.85;;;19.70;65.00;;;;;;4998701;28;20042;-62
2023/06/08 07:23:59;;;;;;;8.35;7.30;;;19.80;64.90;;;;;;5001838;28;20038;-62
2023/06/08 07:26:26;;;;;;;9.00;8.10;;;19.90;64.50;;;;;;5003626;28;20031;-62
2023/06/08 07:28:53;;;;;;;8.93;7.57;;;20.00;63.60;;;;;;4985561;28;20038;-62
2023/06/08 07:31:20;;;;;;;8.77;7.93;;;20.10;64.00;;;;;;5000900;28;20045;-62
2023/06/08 07:33:46;;;;;;;8.70;7.85;;;20.20;63.40;;;;;;5001635;28;20041;-62
2023/06/08 07:36:13;;;;;;;8.65;7.82;;;20.30;63.30;;;;;;5001993;28;20061;-62
2023/06/08 07:38:38;;;;;;;9.73;7.50;;;20.30;63.00;;;;;;5002077;28;20038;-62
2023/06/08 07:41:04;;;;;;;10.20;7.47;;;20.40;62.90;;;;;;5001482;28;20041;-62
2023/06/08 07:43:29;;;;;;;7.95;7.15;;;20.50;62.70;;;;;;5003206;28;20758;-62
2023/06/08 07:45:55;;;;;;;8.88;7.97;;;20.60;62.40;;;;;;5002017;28;20053;-62
2023/06/08 07:48:21;;;;;;;10.05;8.38;;;20.80;62.30;;;;;;5002930;28;20093;-62
2023/06/08 07:50:46;;;;;;;8.10;7.30;;;20.90;62.00;;;;;;4996037;28;20145;-62
2023/06/08 07:53:13;;;;;;;8.77;7.88;;;21.00;61.70;;;;;;5002808;28;20034;-61
2023/06/08 07:55:39;;;;;;;7.03;6.38;;;21.10;60.60;;;;;;5005352;28;20091;-62
2023/06/08 07:58:05;;;;;;;9.23;7.40;;;21.30;60.50;;;;;;5003232;28;20442;-62
2023/06/08 08:00:31;;;;;;;8.30;6.97;;;21.30;59.80;;;;;;5003533;28;20026;-62
2023/06/08 08:02:57;;;;;;;7.97;7.28;;;21.50;60.10;;;;;;5003866;28;20034;-61
2023/06/08 08:05:23;;;;;;;9.80;8.30;;;21.60;60.10;;;;;;5006054;28;20061;-62
2023/06/08 08:07:48;;;;;;;8.75;7.85;;;21.70;58.70;;;;;;5001923;28;20040;-61
2023/06/08 08:10:14;;;;;;;8.20;7.50;;;21.80;58.80;;;;;;5003537;28;20430;-61
2023/06/08 08:12:42;;;;;;;8.30;7.50;;;21.90;59.00;;;;;;5001882;28;20072;-61
2023/06/08 08:15:08;;;;;;;8.15;7.03;;;22.00;59.00;;;;;;5006755;28;20058;-62
2023/06/08 08:17:33;;;;;;;7.88;7.18;;;22.10;58.80;;;;;;5007826;28;20065;-61
2023/06/08 08:19:59;;;;;;;8.52;6.82;;;22.20;58.50;;;;;;5008401;28;20491;-62
2023/06/08 08:22:25;;;;;;;8.35;7.25;;;22.40;58.30;;;;;;5009877;28;20063;-61
2023/06/08 08:24:50;;;;;;;7.88;7.03;;;22.50;58.00;;;;;;5007017;28;20095;-62
2023/06/08 08:27:16;;;;;;;7.93;7.07;;;22.70;57.60;;;;;;5008659;28;20067;-62
2023/06/08 08:29:42;;;;;;;8.00;7.20;;;22.80;57.40;;;;;;5007563;28;20046;-61
2023/06/08 08:32:08;;;;;;;7.25;6.63;;;23.00;57.40;;;;;;5008665;28;20371;-62
2023/06/08 08:34:33;;;;;;;7.85;6.97;;;23.10;57.10;;;;;;5006798;28;20042;-61
2023/06/08 08:36:59;;;;;;;6.25;5.57;;;23.20;56.80;;;;;;5005216;28;20037;-61
2023/06/08 08:39:24;;;;;;;7.20;6.22;;;23.40;55.60;;;;;;5006534;28;20042;-60
2023/06/08 08:41:54;;;;;;;6.38;5.53;;;23.50;55.70;;;;;;5008047;28;20026;-62
2023/06/08 08:44:21;;;;;;;6.15;5.55;;;23.60;55.00;;;;;;5006942;28;20698;-62
2023/06/08 08:46:49;;;;;;;5.95;5.00;;;23.80;54.90;;;;;;5004731;28;20044;-62
2023/06/08 08:49:16;;;;;;;7.38;6.70;;;23.90;54.50;;;;;;5003521;28;20061;-62
2023/06/08 08:51:50;;;;;;;7.75;6.90;;;24.00;54.40;;;;;;5005250;28;21070;-61
2023/06/08 08:54:17;;;;;;;7.13;6.43;;;24.20;53.10;;;;;;5006888;28;20342;-60
2023/06/08 08:56:43;;;;;;;6.63;5.93;;;24.30;52.80;;;;;;5007924;28;20026;-61
2023/06/08 08:59:10;;;;;;;5.00;4.28;;;24.40;53.00;;;;;;5007824;28;20517;-61
2023/06/08 09:01:39;;;;;;;5.22;4.75;;;24.50;52.60;;;;;;5008039;28;20564;-62
2023/06/08 09:04:05;;;;;;;5.07;4.68;;;24.60;52.90;;;;;;5008466;28;20037;-62
2023/06/08 09:06:31;;;;;;;6.22;4.97;;;24.70;52.70;;;;;;5007301;28;20137;-63
2023/06/08 09:08:57;;;;;;;4.50;3.92;;;24.80;51.40;;;;;;5005784;28;20121;-61
2023/06/08 09:11:23;;;;;;;4.75;4.25;;;24.90;51.70;;;;;;5004182;28;20046;-62
2023/06/08 09:14:06;;;;;;;4.45;4.05;;;25.00;51.10;;;;;;5007325;28;20497;-62
2023/06/08 09:16:43;;;;;;;9.02;4.00;;;25.10;49.70;;;;;;5005721;28;20037;-62
2023/06/08 09:19:09;;;;;;;4.75;4.30;;;25.30;49.70;;;;;;5008194;28;20064;-62
2023/06/08 09:21:34;;;;;;;5.18;3.70;;;25.40;50.20;;;;;;5005985;28;20034;-61
2023/06/08 09:24:03;;;;;;;6.28;3.88;;;25.60;50.90;;;;;;5007743;28;20561;-62
2023/06/08 09:26:32;;;;;;;4.60;3.70;;;25.70;49.60;;;;;;5005626;28;20041;-62
2023/06/08 09:29:03;;;;;;;4.57;4.05;;;25.80;49.50;;;;;;5008024;28;20034;-62
2023/06/08 09:31:29;;;;;;;4.55;4.15;;;25.90;48.80;;;;;;5007872;28;20633;-62
2023/06/08 09:34:12;;;;;;;4.50;3.88;;;26.00;49.10;;;;;;5009889;28;20514;-62
2023/06/08 09:36:38;;;;;;;4.50;3.85;;;26.10;48.20;;;;;;5008743;28;20034;-62
2023/06/08 09:39:08;;;;;;;4.15;3.75;;;26.20;48.60;;;;;;5009176;28;20588;-62
2023/06/08 09:41:37;;;;;;;4.05;3.60;;;26.30;48.50;;;;;;5007183;28;20042;-62
2023/06/08 09:44:17;;;;;;;4.00;3.58;;;26.40;48.50;;;;;;5007640;28;20037;-62
2023/06/08 09:46:45;;;;;;;7.05;3.92;;;26.50;47.90;;;;;;5005148;28;20034;-62
2023/06/08 09:49:15;;;;;;;4.68;4.00;;;26.60;47.50;;;;;;5004268;28;20036;-62
2023/06/08 09:51:51;;;;;;;5.50;4.05;;;26.70;46.30;;;;;;5006663;28;20536;-62
2023/06/08 09:54:18;;;;;;;3.85;3.55;;;26.70;46.50;;;;;;5006917;28;20565;-63
2023/06/08 09:56:47;;;;;;;6.30;3.40;;;26.70;46.40;;;;;;5004588;28;20113;-62
2023/06/08 09:59:16;;;;;;;3.72;3.38;;;26.80;46.70;;;;;;5001432;28;20125;-62
2023/06/08 10:01:45;;;;;;;3.72;3.38;;;26.80;46.00;;;;;;5002470;28;20046;-62
2023/06/08 10:04:21;;;;;;;5.60;3.28;;;26.80;45.90;;;;;;5007552;28;20030;-61
2023/06/08 10:06:51;;;;;;;3.50;3.20;;;26.90;45.00;;;;;;5003679;28;20765;-62
2023/06/08 10:09:19;;;;;;;3.25;3.03;;;27.00;45.30;;;;;;5007430;28;20037;-62
2023/06/08 10:11:46;;;;;;;3.50;3.20;;;27.10;44.70;;;;;;5005903;28;20030;-62
2023/06/08 10:14:13;;;;;;;3.38;3.08;;;27.30;44.50;;;;;;5004013;28;20525;-62
2023/06/08 10:16:39;;;;;;;3.35;3.05;;;27.40;44.20;;;;;;5004696;28;20069;-61
2023/06/08 10:19:06;;;;;;;3.22;2.92;;;27.50;43.80;;;;;;5005742;28;20037;-62
2023/06/08 10:21:32;;;;;;;4.35;3.10;;;27.60;43.50;;;;;;5005418;28;20038;-62
2023/06/08 10:23:58;;;;;;;2.95;2.75;;;27.70;42.90;;;;;;5005237;28;20037;-61
2023/06/08 10:26:24;;;;;;;3.10;2.80;;;27.80;42.60;;;;;;5003340;28;20044;-62
2023/06/08 10:29:08;;;;;;;4.15;3.05;;;27.90;42.30;;;;;;5006769;28;20034;-62
2023/06/08 10:31:37;;;;;;;4.13;3.10;;;28.00;41.10;;;;;;5004242;28;20117;-62
2023/06/08 10:34:08;;;;;;;3.17;2.88;;;28.00;41.40;;;;;;5006295;28;20045;-62
2023/06/08 10:36:36;;;;;;;3.33;3.03;;;28.10;40.10;;;;;;5005726;28;20401;-62
2023/06/08 10:39:07;;;;;;;2.95;2.75;;;28.10;40.90;;;;;;5001836;28;20133;-62
2023/06/08 10:41:54;;;;;;;3.03;2.70;;;28.20;39.90;;;;;;5002537;28;20038;-62
2023/06/08 10:44:36;;;;;;;4.05;2.92;;;28.20;39.80;;;;;;5006006;28;20041;-62
2023/06/08 10:47:07;;;;;;;3.25;3.05;;;28.30;38.80;;;;;;5004002;28;20455;-62
2023/06/08 10:49:34;;;;;;;3.50;3.20;;;28.30;40.00;;;;;;5006201;28;20472;-62
2023/06/08 10:52:02;;;;;;;3.28;2.95;;;28.30;39.90;;;;;;5003892;28;20502;-62
2023/06/08 10:54:28;;;;;;;3.55;3.20;;;28.30;39.90;;;;;;5004847;28;20465;-63
2023/06/08 10:56:59;;;;;;;3.13;2.88;;;28.30;39.40;;;;;;5004302;28;20112;-63
2023/06/08 10:59:33;;;;;;;3.08;2.88;;;28.30;39.50;;;;;;5004817;28;20567;-63
2023/06/08 11:02:04;;;;;;;2.80;2.60;;;28.40;38.90;;;;;;5006364;28;20069;-62
2023/06/08 11:04:31;;;;;;;3.20;2.85;;;28.40;39.60;;;;;;5004778;28;20033;-63
2023/06/08 11:07:01;;;;;;;3.20;3.00;;;28.40;39.60;;;;;;5006538;28;20117;-62
2023/06/08 11:09:29;;;;;;;3.05;2.83;;;28.50;39.40;;;;;;5005370;28;20038;-62
2023/06/08 11:11:55;;;;;;;2.90;2.70;;;28.50;39.50;;;;;;5003879;28;20034;-62
2023/06/08 11:14:21;;;;;;;3.60;3.30;;;28.60;39.40;;;;;;5005939;28;20034;-62
2023/06/08 11:16:51;;;;;;;3.00;2.80;;;28.60;38.20;;;;;;5005946;28;20042;-62
2023/06/08 11:19:18;;;;;;;3.00;2.80;;;28.60;37.20;;;;;;5005895;28;20233;-63
2023/06/08 11:21:45;;;;;;;3.33;2.80;;;28.60;38.60;;;;;;5004854;28;20579;-61
2023/06/08 11:24:10;;;;;;;3.35;2.92;;;28.60;38.20;;;;;;5006543;28;20117;-62
2023/06/08 11:26:36;;;;;;;3.40;2.70;;;28.50;38.00;;;;;;5004344;28;20141;-63
2023/06/08 11:29:02;;;;;;;2.65;2.45;;;28.50;37.10;;;;;;5006172;28;20092;-62
2023/06/08 11:31:39;;;;;;;2.67;2.42;;;28.50;37.10;;;;;;5008246;28;20069;-62
2023/06/08 11:34:11;;;;;;;3.22;2.90;;;28.50;36.20;;;;;;5003278;28;20042;-63
2023/06/08 11:36:38;;;;;;;3.20;2.90;;;28.40;37.60;;;;;;4998807;28;20034;-63
2023/06/08 11:39:06;;;;;;;2.75;2.55;;;28.50;38.00;;;;;;5001078;28;20058;-62
2023/06/08 11:41:31;;;;;;;4.40;2.75;;;28.50;38.10;;;;;;5003002;28;20046;-62
2023/06/08 11:43:57;;;;;;;5.47;2.88;;;28.70;38.50;;;;;;5006271;28;20144;-62
2023/06/08 11:46:27;;;;;;;2.78;2.58;;;28.80;38.30;;;;;;5004806;28;20053;-63
2023/06/08 11:48:53;;;;;;;3.20;2.90;;;28.90;38.00;;;;;;5007486;28;20165;-62
2023/06/08 11:51:18;;;;;;;3.00;2.80;;;29.10;38.10;;;;;;5008116;28;20672;-63
2023/06/08 11:53:47;;;;;;;3.92;2.88;;;29.10;36.60;;;;;;5009579;28;20440;-62
2023/06/08 11:56:13;;;;;;;3.28;2.80;;;29.20;36.40;;;;;;5009769;28;20044;-62
2023/06/08 11:58:40;;;;;;;3.03;2.72;;;29.20;35.80;;;;;;5007248;28;20042;-62
2023/06/08 12:01:11;;;;;;;3.03;2.83;;;29.10;36.40;;;;;;5007241;28;20091;-63
2023/06/08 12:03:48;;;;;;;5.40;2.58;;;28.90;36.80;;;;;;5010546;28;20062;-62
2023/06/08 12:06:15;;;;;;;2.90;2.65;;;28.80;36.90;;;;;;5007825;28;20026;-62
2023/06/08 12:08:41;;;;;;;2.95;2.75;;;28.80;37.30;;;;;;5009198;28;20030;-62
2023/06/08 12:11:10;;;;;;;3.53;2.90;;;28.70;37.30;;;;;;5010167;28;20437;-63
2023/06/08 12:13:39;;;;;;;3.50;3.00;;;28.70;37.60;;;;;;5009887;28;20045;-62
2023/06/08 12:16:10;;;;;;;3.50;3.20;;;28.60;37.50;;;;;;5007803;28;20511;-63
2023/06/08 12:18:44;;;;;;;2.95;2.75;;;28.50;36.20;;;;;;5008757;28;20041;-63
2023/06/08 12:21:14;;;;;;;2.85;2.65;;;28.40;36.10;;;;;;5008127;28;20042;-62
2023/06/08 12:23:40;;;;;;;3.42;3.13;;;28.40;37.60;;;;;;5007869;28;20339;-63
2023/06/08 12:26:06;;;;;;;3.17;2.97;;;28.30;38.30;;;;;;5006792;28;20037;-62
2023/06/08 12:28:32;;;;;;;3.38;2.72;;;28.40;38.80;;;;;;5006195;28;20030;-63
2023/06/08 12:31:00;;;;;;;2.95;2.65;;;28.40;38.30;;;;;;5007832;28;20034;-63
2023/06/08 12:33:29;;;;;;;2.67;2.40;;;28.40;37.10;;;;;;5006991;28;20034;-62
2023/06/08 12:35:54;;;;;;;3.75;2.50;;;28.40;36.30;;;;;;5007287;28;20042;-63
2023/06/08 12:38:21;;;;;;;3.40;2.15;;;28.30;35.40;;;;;;5009176;28;20026;-62
2023/06/08 12:40:48;;;;;;;2.70;2.50;;;28.20;35.00;;;;;;5007589;28;20038;-63
2023/06/08 12:43:21;;;;;;;3.13;2.13;;;28.00;34.30;;;;;;5008469;28;20082;-63
2023/06/08 12:45:48;;;;;;;2.40;2.08;;;27.90;34.50;;;;;;5008860;28;20053;-62
2023/06/08 12:48:14;;;;;;;2.85;2.20;;;27.80;34.80;;;;;;5007404;28;20026;-63